Time;durP1;ratioP1;P1;durP2;ratioP2;P2;SDS_P1;SDS_P2;PMS_P1;PMS_P2;Temp;Humidity;BMP_temperature;BMP_pressure;BME280_temperature;BME280_humidity;BME280_pressure;Samples;Min_cycle;Max_cycle;Signal;HPM_P1;HPM_P2
2022/06/26 00:00:50;;;;;;;3.43;3.20;;;20.50;99.90;;;20.96;70.04;94922.78;5118437;28;21000;-56
2022/06/26 00:03:17;;;;;;;2.33;2.10;;;20.50;99.90;;;20.95;70.31;94927.28;5124760;28;20456;-55
2022/06/26 00:05:44;;;;;;;4.23;1.83;;;20.50;99.90;;;20.95;69.90;94923.81;5126074;28;20587;-55
2022/06/26 00:08:12;;;;;;;3.70;2.13;;;20.50;99.90;;;20.94;70.25;94927.50;5115586;28;20456;-56
2022/06/26 00:10:39;;;;;;;1.90;1.80;;;20.50;99.90;;;20.93;70.23;94925.88;5119468;28;20476;-56
2022/06/26 00:13:08;;;;;;;4.90;2.13;;;20.50;99.90;;;20.92;70.15;94925.03;5125088;28;20488;-54
2022/06/26 00:15:35;;;;;;;4.13;2.50;;;20.40;99.90;;;20.92;70.16;94929.56;5123449;28;20476;-56
2022/06/26 00:18:03;;;;;;;3.00;1.93;;;20.50;99.90;;;20.90;70.36;94927.09;5118839;28;20456;-56
2022/06/26 00:20:30;;;;;;;2.23;1.97;;;20.40;99.90;;;20.89;70.84;94928.09;5123341;28;20480;-54
2022/06/26 00:22:57;;;;;;;4.07;2.50;;;20.40;99.90;;;20.88;70.46;94928.31;5120666;28;20459;-55
2022/06/26 00:25:25;;;;;;;3.70;2.20;;;20.40;99.90;;;20.87;70.25;94921.31;5125118;28;20872;-58
2022/06/26 00:27:52;;;;;;;7.67;2.33;;;20.40;99.90;;;20.87;70.13;94926.69;5116541;28;20471;-55
2022/06/26 00:30:21;;;;;;;5.03;2.30;;;20.40;99.90;;;20.86;70.32;94914.31;5117579;28;20473;-53
2022/06/26 00:32:49;;;;;;;4.37;2.40;;;20.40;99.90;;;20.84;70.50;94916.38;5123143;27;20978;-55
2022/06/26 00:35:16;;;;;;;7.33;2.53;;;20.40;99.90;;;20.84;70.48;94924.41;5124164;27;20852;-56
2022/06/26 00:37:43;;;;;;;8.23;2.83;;;20.40;99.90;;;20.81;70.16;94920.28;5125537;27;20455;-55
2022/06/26 00:40:11;;;;;;;4.53;2.20;;;20.40;99.90;;;20.81;70.58;94914.13;5118964;27;21298;-56
2022/06/26 00:42:38;;;;;;;4.60;2.67;;;20.30;99.90;;;20.80;70.96;94913.28;5119397;27;20449;-53
2022/06/26 00:45:08;;;;;;;6.30;2.60;;;20.40;99.90;;;20.80;70.44;94913.28;5128704;27;20500;-54
2022/06/26 00:47:36;;;;;;;4.97;2.20;;;20.40;99.90;;;20.77;70.71;94909.19;5126320;27;21002;-58
2022/06/26 00:50:07;;;;;;;5.03;2.23;;;20.30;99.90;;;20.79;70.76;94917.00;5128779;27;20978;-56
2022/06/26 00:52:34;;;;;;;8.00;2.73;;;20.30;99.90;;;20.74;70.85;94914.94;5122847;27;20501;-56
2022/06/26 00:55:02;;;;;;;7.60;3.07;;;20.30;99.90;;;20.74;70.06;94911.41;5128991;27;20513;-53
2022/06/26 00:57:29;;;;;;;9.80;3.13;;;20.30;99.90;;;20.72;70.42;94913.47;5125419;27;20456;-55
2022/06/26 00:59:57;;;;;;;3.83;2.43;;;20.30;99.90;;;20.72;70.42;94916.13;5120805;27;20528;-55
2022/06/26 01:02:24;;;;;;;7.63;3.17;;;20.30;99.90;;;20.70;70.51;94921.69;5121558;27;21263;-55
2022/06/26 01:04:53;;;;;;;2.93;2.60;;;20.20;99.90;;;20.66;70.63;94925.78;5127658;27;20498;-55
2022/06/26 01:07:20;;;;;;;5.03;2.93;;;20.20;99.90;;;20.64;70.80;94925.13;5124021;27;20505;-55
2022/06/26 01:09:48;;;;;;;10.13;3.27;;;20.20;99.90;;;20.64;70.61;94933.16;5123501;27;20464;-56
2022/06/26 01:12:15;;;;;;;2.80;2.50;;;20.20;99.90;;;20.64;70.68;94927.00;5119495;27;20980;-56
2022/06/26 01:14:42;;;;;;;5.50;3.07;;;20.20;99.90;;;20.62;71.12;94932.53;5126334;27;20463;-55
2022/06/26 01:17:10;;;;;;;3.23;2.97;;;20.20;99.90;;;20.61;71.23;94933.56;5123391;27;20463;-56
2022/06/26 01:19:38;;;;;;;2.57;2.37;;;20.20;99.90;;;20.60;70.94;94931.91;5127398;27;20444;-56
2022/06/26 01:22:07;;;;;;;5.53;2.23;;;20.10;99.90;;;20.59;70.96;94924.91;5121621;27;20460;-55
2022/06/26 01:24:35;;;;;;;4.67;2.30;;;20.10;99.90;;;20.55;70.13;94926.34;5121327;27;20492;-55
2022/06/26 01:27:03;;;;;;;6.77;2.37;;;20.10;99.90;;;20.56;70.70;94931.47;5123118;27;20452;-57
2022/06/26 01:29:30;;;;;;;9.70;2.67;;;20.10;99.90;;;20.55;70.69;94927.16;5124176;27;20456;-54
2022/06/26 01:31:57;;;;;;;2.70;2.50;;;20.10;99.90;;;20.54;71.10;94922.84;5121800;27;20467;-55
2022/06/26 01:34:25;;;;;;;3.90;3.27;;;20.10;99.90;;;20.53;71.23;94933.75;5122293;27;20458;-54
2022/06/26 01:36:52;;;;;;;9.90;3.00;;;20.10;99.90;;;20.52;71.00;94934.75;5122720;27;20495;-55
2022/06/26 01:39:20;;;;;;;8.13;2.93;;;20.10;99.90;;;20.53;71.20;94936.41;5127105;27;20465;-57
2022/06/26 01:41:49;;;;;;;2.47;2.27;;;20.10;99.90;;;20.50;71.31;94936.81;5122509;27;20483;-55
2022/06/26 01:44:17;;;;;;;7.53;2.87;;;20.10;99.90;;;20.49;71.74;94937.81;5119267;27;20492;-56
2022/06/26 01:46:44;;;;;;;20.03;3.63;;;20.00;99.90;;;20.49;71.60;94945.84;5125027;27;20473;-55
2022/06/26 01:49:11;;;;;;;4.87;2.90;;;20.00;99.90;;;20.49;72.02;94945.84;5126951;27;20444;-56
2022/06/26 01:51:39;;;;;;;7.53;2.73;;;20.00;99.90;;;20.47;71.60;94942.56;5128390;27;20476;-56
2022/06/26 01:54:06;;;;;;;9.77;2.43;;;20.00;99.90;;;20.45;71.41;94950.78;5126984;27;20984;-55
2022/06/26 01:56:33;;;;;;;2.13;2.03;;;20.00;99.90;;;20.42;71.48;94949.31;5122352;27;20477;-56
2022/06/26 01:59:02;;;;;;;6.30;2.50;;;20.00;99.90;;;20.43;71.21;94950.13;5123953;27;20457;-54
2022/06/26 02:01:31;;;;;;;2.07;1.90;;;20.00;99.90;;;20.45;71.00;94952.59;5128485;27;20471;-58
2022/06/26 02:03:58;;;;;;;6.67;3.30;;;20.00;99.90;;;20.44;71.60;94954.44;5123098;27;20460;-55
2022/06/26 02:06:25;;;;;;;4.00;1.93;;;20.00;99.90;;;20.44;71.81;94957.13;5122312;27;20471;-56
2022/06/26 02:08:52;;;;;;;2.67;2.17;;;20.00;99.90;;;20.44;71.71;94964.31;5122628;27;20463;-54
2022/06/26 02:14:17;;;;;;;2.30;2.10;;;20.00;99.90;;;20.42;71.38;94960.00;5043848;28;20459;-56
2022/06/26 02:16:45;;;;;;;8.70;2.20;;;20.00;99.90;;;20.42;71.45;94957.31;5103083;27;20502;-54
2022/06/26 02:19:12;;;;;;;2.30;2.10;;;20.00;99.90;;;20.43;71.71;94960.81;5125871;27;20444;-55
2022/06/26 02:21:40;;;;;;;4.00;2.50;;;20.00;99.90;;;20.43;71.52;94952.78;5122902;27;20475;-56
2022/06/26 02:24:08;;;;;;;9.20;2.83;;;20.00;99.90;;;20.42;71.24;94962.66;5124852;27;20483;-54
2022/06/26 02:26:35;;;;;;;5.00;2.00;;;20.00;99.90;;;20.41;71.24;94955.66;5119032;27;21003;-56
2022/06/26 02:29:02;;;;;;;5.60;2.20;;;20.00;99.90;;;20.41;71.29;94955.66;5122502;27;20702;-56
2022/06/26 02:31:31;;;;;;;4.80;2.27;;;20.00;99.90;;;20.40;71.48;94962.06;5117758;27;20480;-55
2022/06/26 02:33:58;;;;;;;2.80;1.97;;;20.00;99.90;;;20.39;71.87;94959.56;5124620;27;20452;-55
2022/06/26 02:36:26;;;;;;;3.50;2.70;;;19.90;99.90;;;20.37;71.20;94958.94;5122982;27;20468;-53
2022/06/26 02:38:53;;;;;;;7.33;2.63;;;19.90;99.90;;;20.34;71.50;94967.34;5121902;27;20975;-55
2022/06/26 02:41:20;;;;;;;5.43;2.60;;;19.90;99.90;;;20.31;71.46;94979.28;5120964;27;20831;-56
2022/06/26 02:43:47;;;;;;;8.40;3.43;;;19.90;99.90;;;20.29;72.13;94991.97;5119547;27;20464;-56
2022/06/26 02:46:15;;;;;;;6.00;2.80;;;19.90;99.90;;;20.24;72.16;94986.41;5120287;27;20488;-53
2022/06/26 02:48:44;;;;;;;5.20;3.10;;;19.80;99.90;;;20.21;72.24;94978.78;5121765;27;20452;-55
2022/06/26 02:51:11;;;;;;;7.40;3.13;;;19.80;99.90;;;20.19;72.11;94978.16;5126848;27;20464;-56
2022/06/26 02:53:39;;;;;;;6.40;3.43;;;19.80;99.90;;;20.17;72.23;94975.69;5124902;27;20990;-56
2022/06/26 02:56:06;;;;;;;8.87;3.77;;;19.70;99.90;;;20.16;72.77;94974.03;5125189;27;21035;-57
2022/06/26 02:58:33;;;;;;;9.33;3.60;;;19.70;99.90;;;20.17;72.47;94974.84;5121432;27;20452;-53
2022/06/26 03:01:01;;;;;;;8.10;3.40;;;19.70;99.90;;;20.17;72.91;94975.69;5118582;27;20472;-56
2022/06/26 03:03:28;;;;;;;4.70;3.47;;;19.70;99.90;;;20.17;73.39;94978.38;5126477;27;20475;-56
2022/06/26 03:05:57;;;;;;;12.33;3.97;;;19.70;99.90;;;20.19;73.51;94983.50;5123493;27;20489;-56
2022/06/26 03:08:24;;;;;;;13.03;4.40;;;19.80;99.90;;;20.18;73.52;94989.88;5121185;27;20460;-56
2022/06/26 03:10:51;;;;;;;6.67;3.57;;;19.70;99.90;;;20.20;73.64;94993.16;5126333;27;20486;-53
2022/06/26 03:13:18;;;;;;;6.03;3.57;;;19.70;99.90;;;20.20;73.59;94996.69;5120240;27;20449;-56
2022/06/26 03:15:46;;;;;;;6.60;3.90;;;19.80;99.90;;;20.21;73.75;94992.16;5122480;27;20480;-56
2022/06/26 03:18:13;;;;;;;17.93;4.60;;;19.80;99.90;;;20.21;73.71;94997.50;5122109;27;20541;-56
2022/06/26 03:20:41;;;;;;;11.03;4.23;;;19.80;99.90;;;20.21;73.65;94992.97;5124418;27;20472;-56
2022/06/26 03:23:10;;;;;;;5.37;4.63;;;19.80;99.90;;;20.21;73.77;95000.97;5120592;27;20448;-53
2022/06/26 03:25:37;;;;;;;7.50;5.23;;;19.80;99.90;;;20.22;73.92;94993.81;5122297;27;20496;-58
2022/06/26 03:28:05;;;;;;;9.47;6.83;;;19.80;99.90;;;20.21;74.05;94990.28;5122163;27;20835;-54
2022/06/26 03:30:32;;;;;;;6.33;5.73;;;19.80;99.90;;;20.23;74.06;94998.09;5124289;27;21046;-57
2022/06/26 03:32:59;;;;;;;5.80;5.30;;;19.80;99.90;;;20.23;73.75;94995.44;5118521;27;20474;-56
2022/06/26 03:35:27;;;;;;;8.53;5.87;;;19.80;99.90;;;20.22;74.17;94996.47;5126733;27;20525;-54
2022/06/26 03:37:55;;;;;;;7.97;6.07;;;19.80;99.90;;;20.23;74.22;95003.44;5123666;27;20516;-56
2022/06/26 03:40:23;;;;;;;8.87;6.43;;;19.80;99.90;;;20.23;73.97;95006.97;5123854;27;20472;-55
2022/06/26 03:42:51;;;;;;;18.47;5.80;;;19.80;99.90;;;20.23;74.18;95011.47;5115823;27;20849;-55
2022/06/26 03:45:18;;;;;;;11.40;6.17;;;19.80;99.90;;;20.22;73.83;95016.00;5119806;27;20492;-53
2022/06/26 03:47:45;;;;;;;10.20;6.57;;;19.80;99.90;;;20.22;74.40;95024.00;5125287;28;20452;-55
2022/06/26 03:50:13;;;;;;;8.53;5.67;;;19.80;99.90;;;20.21;74.37;95019.66;5126548;28;21019;-54
2022/06/26 03:52:40;;;;;;;10.17;5.90;;;19.80;99.90;;;20.20;74.18;95023.38;5122499;28;20513;-52
2022/06/26 03:55:08;;;;;;;9.37;5.20;;;19.80;99.90;;;20.20;74.31;95019.88;5124343;28;20487;-56
2022/06/26 03:57:37;;;;;;;5.97;5.47;;;19.80;99.90;;;20.21;73.78;95026.88;5122552;28;20758;-56
2022/06/26 04:00:06;;;;;;;12.37;5.70;;;19.80;99.90;;;20.20;74.05;95022.53;5120124;28;20463;-54
2022/06/26 04:02:33;;;;;;;7.90;5.10;;;19.80;99.90;;;20.20;74.28;95018.03;5114927;28;20456;-56
2022/06/26 04:05:01;;;;;;;10.90;5.63;;;19.80;99.90;;;20.22;74.02;95020.50;5122762;28;20484;-55
2022/06/26 04:07:28;;;;;;;14.37;6.00;;;19.80;99.90;;;20.23;74.50;95014.97;5126667;27;20455;-55
2022/06/26 04:09:56;;;;;;;6.40;5.57;;;19.80;99.90;;;20.25;74.26;95014.78;5128990;27;20466;-55
2022/06/26 04:12:23;;;;;;;10.93;6.77;;;19.80;99.90;;;20.27;74.29;95019.94;5125270;27;20944;-56
2022/06/26 04:14:52;;;;;;;5.60;4.90;;;19.80;99.90;;;20.28;73.95;95014.38;5130360;27;20444;-56
2022/06/26 04:17:19;;;;;;;14.00;6.37;;;19.90;99.90;;;20.29;74.02;95016.03;5130595;27;20455;-54
2022/06/26 04:19:47;;;;;;;7.50;4.87;;;19.80;99.90;;;20.31;74.07;95013.16;5130638;27;20447;-56
2022/06/26 04:22:14;;;;;;;9.13;4.37;;;19.90;99.90;;;20.35;73.98;95014.41;5130804;27;20449;-54
2022/06/26 04:24:41;;;;;;;12.93;4.23;;;19.90;99.90;;;20.39;73.92;95015.69;5125907;27;20504;-56
2022/06/26 04:27:09;;;;;;;11.00;4.97;;;19.90;99.90;;;20.47;74.10;95017.38;5129028;27;20456;-54
2022/06/26 04:29:36;;;;;;;4.73;4.20;;;20.00;99.90;;;20.51;74.05;95013.25;5126126;27;20463;-56
2022/06/26 04:32:06;;;;;;;5.37;4.53;;;20.00;99.90;;;20.57;73.57;95013.31;5121309;27;20620;-57
2022/06/26 04:34:33;;;;;;;11.47;4.40;;;20.10;99.90;;;20.63;73.93;95016.19;5127043;27;20909;-57
2022/06/26 04:37:01;;;;;;;13.67;4.50;;;20.20;99.90;;;20.67;73.58;95018.31;5127023;27;20460;-56
2022/06/26 04:39:28;;;;;;;9.87;4.07;;;20.20;99.90;;;20.73;73.44;95022.88;5125812;27;20459;-58
2022/06/26 04:41:55;;;;;;;12.07;5.30;;;20.30;99.90;;;20.82;73.41;95022.69;5133158;27;20611;-53
2022/06/26 04:44:22;;;;;;;10.23;4.73;;;20.30;99.90;;;20.91;72.73;95026.81;5129650;27;20847;-56
2022/06/26 04:46:50;;;;;;;7.43;4.00;;;20.40;99.90;;;20.93;72.85;95022.13;5130275;27;20542;-55
2022/06/26 04:49:19;;;;;;;11.93;4.13;;;20.50;99.90;;;21.00;72.31;95025.63;5122709;27;20463;-53
2022/06/26 04:51:47;;;;;;;12.90;4.83;;;20.60;99.90;;;21.02;71.94;95026.28;5129360;27;20475;-54
2022/06/26 04:54:14;;;;;;;9.03;4.30;;;20.60;99.90;;;21.04;72.30;95023.41;5120052;27;20964;-58
2022/06/26 04:56:42;;;;;;;7.10;4.33;;;20.60;99.90;;;21.09;72.10;95028.97;5126196;27;20480;-51
2022/06/26 04:59:09;;;;;;;10.63;5.30;;;20.60;99.90;;;21.12;72.08;95037.38;5126261;27;20447;-56
2022/06/26 05:01:37;;;;;;;7.03;4.93;;;20.70;99.90;;;21.19;71.77;95041.94;5128229;27;20455;-55
2022/06/26 05:04:04;;;;;;;6.33;4.83;;;20.70;99.90;;;21.27;72.13;95029.22;5129040;27;20444;-54
2022/06/26 05:06:33;;;;;;;8.50;5.30;;;20.80;99.90;;;21.35;71.62;95041.56;5129429;27;20491;-57
2022/06/26 05:09:00;;;;;;;5.77;4.03;;;20.90;99.90;;;21.45;71.85;95042.00;5129638;27;20449;-53
2022/06/26 05:11:28;;;;;;;6.67;5.03;;;20.90;99.90;;;21.57;71.51;95044.13;5125517;27;20483;-57
2022/06/26 05:13:55;;;;;;;9.60;6.07;;;21.00;99.90;;;21.72;71.31;95039.41;5130108;27;20808;-54
2022/06/26 05:16:22;;;;;;;18.73;5.90;;;21.20;99.90;;;21.91;70.59;95047.66;5123415;27;20468;-54
2022/06/26 05:18:50;;;;;;;8.33;5.20;;;21.40;99.90;;;22.02;70.60;95052.38;5119820;27;20893;-58
2022/06/26 05:21:17;;;;;;;12.53;4.80;;;21.50;99.90;;;22.10;69.67;95054.00;5122216;27;20472;-56
2022/06/26 05:23:46;;;;;;;8.60;4.20;;;21.60;99.90;;;22.13;69.85;95054.41;5123597;27;20881;-54
2022/06/26 05:26:13;;;;;;;4.90;4.40;;;21.60;99.90;;;22.17;69.13;95052.97;5116368;27;20503;-56
2022/06/26 05:28:41;;;;;;;11.00;5.07;;;21.60;99.90;;;22.23;69.17;95059.38;5117426;27;20459;-56
2022/06/26 05:31:08;;;;;;;13.83;4.00;;;21.70;99.90;;;22.28;68.40;95064.13;5121956;27;20472;-57
2022/06/26 05:33:35;;;;;;;10.43;6.07;;;21.80;99.90;;;22.36;68.37;95069.28;5114837;27;20467;-57
2022/06/26 05:36:03;;;;;;;14.67;8.53;;;21.80;99.90;;;22.51;68.63;95067.19;5119197;27;20473;-55
2022/06/26 05:38:30;;;;;;;10.60;6.20;;;21.90;99.90;;;22.77;68.52;95072.69;5116713;27;20479;-56
2022/06/26 05:40:59;;;;;;;28.47;9.57;;;22.20;99.90;;;23.01;67.77;95071.16;5117685;27;20476;-57
2022/06/26 05:43:26;;;;;;;19.47;8.20;;;22.40;99.90;;;23.23;67.63;95072.53;5120040;27;20464;-55
2022/06/26 05:45:54;;;;;;;13.17;6.83;;;22.60;99.90;;;23.45;66.49;95077.59;5122971;27;20495;-52
2022/06/26 05:48:21;;;;;;;25.20;12.03;;;22.90;99.90;;;23.60;65.87;95083.50;5118728;27;20452;-57
2022/06/26 05:50:48;;;;;;;11.63;6.20;;;23.00;99.90;;;23.72;65.69;95089.00;5123792;27;20871;-55
2022/06/26 05:53:16;;;;;;;6.10;5.20;;;23.10;99.90;;;23.85;65.55;95095.34;5113200;27;20461;-56
2022/06/26 05:55:43;;;;;;;6.07;5.03;;;23.30;99.90;;;24.02;64.39;95092.97;5118484;27;20479;-56
2022/06/26 05:58:12;;;;;;;7.30;5.57;;;23.40;99.90;;;24.18;64.48;95087.03;5122995;27;20456;-55
2022/06/26 06:00:39;;;;;;;8.17;5.80;;;23.50;99.90;;;24.34;63.50;95083.81;5121130;27;21027;-56
2022/06/26 06:03:07;;;;;;;10.73;7.93;;;23.70;99.80;;;24.51;62.94;95080.56;5116243;27;20558;-55
2022/06/26 06:05:35;;;;;;;14.50;6.17;;;23.90;99.30;;;24.60;62.31;95090.00;5120068;27;20483;-56
2022/06/26 06:08:02;;;;;;;10.60;5.37;;;24.00;98.90;;;24.72;62.65;95092.78;5123617;27;20459;-55
2022/06/26 06:10:30;;;;;;;9.37;6.67;;;24.10;98.60;;;24.89;62.12;95087.63;5119723;27;20478;-56
2022/06/26 06:12:57;;;;;;;11.00;7.10;;;24.30;98.30;;;25.13;61.71;95087.75;5121576;27;21004;-54
2022/06/26 06:15:26;;;;;;;9.20;5.47;;;24.50;98.20;;;25.31;61.00;95090.47;5116912;27;20480;-56
2022/06/26 06:17:53;;;;;;;5.23;4.67;;;24.60;98.00;;;25.40;61.19;95089.09;5118345;27;20527;-54
2022/06/26 06:20:22;;;;;;;11.13;5.07;;;24.80;97.80;;;25.43;60.61;95082.44;5121887;27;20463;-56
2022/06/26 06:22:53;;;;;;;11.13;4.33;;;24.80;97.30;;;25.51;60.36;95082.13;5121326;27;20542;-53
2022/06/26 06:25:20;;;;;;;6.63;4.40;;;24.90;97.10;;;25.59;60.03;95087.22;5117761;27;21077;-55
2022/06/26 06:27:48;;;;;;;5.53;4.87;;;24.90;96.70;;;25.73;59.81;95090.53;5119480;27;20448;-55
2022/06/26 06:30:15;;;;;;;5.77;3.73;;;25.10;97.00;;;25.86;59.11;95091.41;5121273;27;20463;-56
2022/06/26 06:32:45;;;;;;;5.70;4.00;;;25.20;96.30;;;25.95;59.03;95084.63;5119067;27;20543;-56
2022/06/26 06:35:13;;;;;;;5.03;4.10;;;25.30;96.10;;;26.10;58.30;95093.13;5121847;27;20494;-56
2022/06/26 06:37:42;;;;;;;5.27;3.83;;;25.40;95.60;;;26.20;58.07;95092.53;5118827;27;20443;-55
2022/06/26 06:40:11;;;;;;;3.73;3.43;;;25.50;95.30;;;26.31;58.04;95090.91;5120958;27;21287;-56
2022/06/26 06:42:38;;;;;;;6.00;3.53;;;25.60;95.20;;;26.45;57.08;95089.63;5123530;27;20455;-55
2022/06/26 06:45:07;;;;;;;5.50;3.47;;;25.70;94.90;;;26.56;57.35;95093.38;5114698;27;20559;-56
2022/06/26 06:47:35;;;;;;;10.60;4.20;;;25.90;94.40;;;26.65;57.03;95091.16;5118842;27;20507;-57
2022/06/26 06:50:05;;;;;;;5.50;4.10;;;26.00;94.40;;;26.73;56.56;95084.63;5120610;27;21065;-53
2022/06/26 06:52:33;;;;;;;13.20;4.70;;;26.10;94.10;;;26.86;57.01;95099.75;5116933;27;20853;-56
2022/06/26 06:55:00;;;;;;;14.30;3.80;;;26.10;94.10;;;27.03;56.64;95100.66;5116462;27;20529;-55
2022/06/26 06:57:27;;;;;;;3.60;3.40;;;26.30;93.90;;;27.19;56.20;95088.31;5120157;27;20478;-54
2022/06/26 06:59:55;;;;;;;4.23;3.40;;;26.50;93.40;;;27.38;55.64;95091.69;5117150;27;20905;-55
2022/06/26 07:02:22;;;;;;;5.83;3.77;;;26.60;93.00;;;27.61;55.04;95089.97;5113686;27;20460;-54
2022/06/26 07:04:49;;;;;;;5.90;4.20;;;26.80;92.30;;;27.78;54.68;95090.81;5116404;27;20455;-54
2022/06/26 07:07:18;;;;;;;4.90;3.90;;;27.00;92.20;;;27.80;54.37;95091.38;5116419;27;20487;-54
2022/06/26 07:09:45;;;;;;;12.13;3.30;;;27.10;91.70;;;27.68;54.24;95087.91;5119258;27;20517;-56
2022/06/26 07:12:13;;;;;;;5.03;3.50;;;27.00;91.30;;;27.58;53.78;95091.25;5118733;27;20455;-55
2022/06/26 07:14:40;;;;;;;4.23;3.70;;;26.90;91.30;;;27.63;53.85;95098.66;5120628;27;20867;-56
2022/06/26 07:17:08;;;;;;;4.50;4.10;;;26.90;91.30;;;27.60;54.06;95088.31;5118120;27;20452;-56
2022/06/26 07:19:36;;;;;;;12.20;3.93;;;26.90;91.30;;;27.70;53.91;95088.50;5116635;27;20453;-54
2022/06/26 07:22:03;;;;;;;8.73;3.63;;;26.90;91.40;;;27.90;54.01;95096.16;5113508;27;20456;-57
2022/06/26 07:24:32;;;;;;;11.70;4.87;;;27.10;91.40;;;28.15;53.50;95093.13;5116572;27;20907;-57
2022/06/26 07:26:59;;;;;;;6.03;4.00;;;27.30;91.10;;;28.34;52.82;95093.69;5121302;27;20479;-55
2022/06/26 07:29:27;;;;;;;7.53;4.20;;;27.50;90.70;;;28.50;52.93;95094.75;5115989;27;20459;-56
2022/06/26 07:31:54;;;;;;;7.00;4.57;;;27.70;90.30;;;28.64;52.99;95094.44;5116940;27;20486;-55
2022/06/26 07:34:23;;;;;;;11.03;4.40;;;27.90;90.20;;;28.76;52.74;95092.47;5116532;27;20458;-56
2022/06/26 07:36:51;;;;;;;8.07;4.70;;;28.00;89.60;;;28.87;51.73;95088.81;5118006;27;20565;-57
2022/06/26 07:39:19;;;;;;;11.50;3.77;;;28.10;88.90;;;28.97;51.26;95088.97;5116554;27;20574;-55
2022/06/26 07:41:49;;;;;;;5.10;4.00;;;28.20;87.70;;;29.02;51.47;95084.66;5120624;27;20463;-56
2022/06/26 07:44:16;;;;;;;7.90;4.10;;;28.30;87.30;;;29.04;50.99;95075.22;5115825;27;20482;-55
2022/06/26 07:46:45;;;;;;;4.33;3.87;;;28.40;86.80;;;29.17;51.53;95079.44;5113959;27;20872;-55
2022/06/26 07:49:13;;;;;;;6.00;4.43;;;28.40;86.50;;;29.22;50.91;95079.56;5120884;28;20458;-54
2022/06/26 07:51:40;;;;;;;5.67;4.20;;;28.50;86.10;;;29.23;51.42;95073.06;5120554;28;21210;-52
2022/06/26 07:54:08;;;;;;;5.03;3.60;;;28.50;85.70;;;29.33;50.68;95075.91;5118171;28;20463;-53
2022/06/26 07:56:35;;;;;;;8.60;4.20;;;28.50;86.00;;;29.47;50.94;95080.94;5117503;28;20487;-54
2022/06/26 07:59:05;;;;;;;7.53;3.10;;;28.70;85.50;;;29.55;50.42;95080.47;5115464;28;20451;-56
2022/06/26 08:01:32;;;;;;;13.47;3.53;;;28.80;83.60;;;29.54;50.08;95076.13;5120192;28;20459;-54
2022/06/26 08:04:00;;;;;;;8.80;4.90;;;28.80;82.70;;;29.64;50.09;95078.16;5118084;27;20459;-54
2022/06/26 08:06:27;;;;;;;6.37;3.80;;;28.90;82.70;;;29.85;49.50;95079.19;5115942;28;21643;-52
2022/06/26 08:08:55;;;;;;;5.70;3.13;;;29.00;81.80;;;30.10;49.36;95083.22;5119342;28;20471;-57
2022/06/26 08:11:22;;;;;;;7.20;3.40;;;29.30;81.20;;;30.30;48.56;95086.09;5118235;28;20723;-57
2022/06/26 08:13:50;;;;;;;5.70;3.33;;;29.50;79.80;;;30.35;48.45;95083.44;5120751;28;20885;-57
2022/06/26 08:16:18;;;;;;;11.53;4.10;;;29.60;78.30;;;30.45;47.79;95081.91;5114469;28;20470;-55
2022/06/26 08:18:46;;;;;;;7.43;3.70;;;29.70;77.90;;;30.62;47.60;95082.56;5114338;28;20205;-55
2022/06/26 08:23:58;;;;;;;6.03;3.80;;;30.00;75.60;;;31.09;46.68;95076.38;5118088;28;20701;-56
2022/06/26 08:26:25;;;;;;;6.53;3.40;;;30.30;75.20;;;31.32;46.04;95081.63;5117333;28;20668;-55
2022/06/26 08:28:52;;;;;;;10.10;4.00;;;30.50;73.70;;;31.54;45.65;95078.72;5116013;28;20206;-55
2022/06/26 08:31:21;;;;;;;5.67;3.77;;;30.80;72.50;;;31.71;45.19;95079.31;5115371;28;20219;-55
2022/06/26 08:33:48;;;;;;;3.43;3.13;;;30.90;71.30;;;31.85;45.01;95082.34;5118719;28;20206;-53
2022/06/26 08:36:16;;;;;;;6.73;4.00;;;31.10;70.10;;;31.96;44.62;95078.56;5122349;28;20321;-56
2022/06/26 08:38:44;;;;;;;5.97;3.00;;;31.20;69.90;;;32.13;44.32;95081.06;5117760;27;20582;-56
2022/06/26 08:41:11;;;;;;;3.90;2.80;;;31.40;68.90;;;32.28;43.98;95074.78;5114239;28;20321;-53
2022/06/26 08:43:39;;;;;;;3.10;2.80;;;31.60;68.20;;;32.45;43.86;95076.44;5115355;28;20195;-56
2022/06/26 08:46:07;;;;;;;6.25;3.20;;;31.70;67.70;;;32.56;43.73;95082.69;5113638;28;20244;-56
2022/06/26 08:48:43;;;;;;;3.00;2.67;;;31.90;66.80;;;32.53;43.40;95076.72;5120837;28;20213;-56
2022/06/26 08:51:10;;;;;;;8.25;3.30;;;31.80;66.10;;;32.57;43.39;95081.63;5112062;28;20229;-55
2022/06/26 08:53:38;;;;;;;4.60;3.33;;;31.90;65.60;;;32.58;42.62;95077.78;5121684;27;20194;-54
2022/06/26 08:56:05;;;;;;;5.45;2.75;;;31.90;63.80;;;32.53;42.39;95075.88;5122590;27;20245;-57
2022/06/26 08:58:33;;;;;;;5.57;2.83;;;31.80;63.30;;;32.50;42.59;95077.25;5123307;27;20589;-55
2022/06/26 09:01:00;;;;;;;7.07;2.88;;;31.80;62.70;;;32.39;42.36;95075.63;5123812;27;20209;-55
2022/06/26 09:03:28;;;;;;;4.20;2.17;;;31.70;61.80;;;32.23;41.92;95068.56;5122315;27;20194;-54
2022/06/26 09:05:56;;;;;;;6.68;2.55;;;31.50;60.80;;;32.15;41.30;95065.28;5125610;27;20222;-56
2022/06/26 09:08:25;;;;;;;6.78;2.78;;;31.50;60.20;;;32.21;41.18;95068.00;5120747;27;20221;-52
2022/06/26 09:10:52;;;;;;;7.07;2.38;;;31.40;60.30;;;32.34;41.24;95056.56;5121526;27;20565;-53
2022/06/26 09:13:19;;;;;;;4.40;2.80;;;31.50;59.80;;;32.51;40.66;95056.28;5120152;27;20668;-55
2022/06/26 09:15:50;;;;;;;4.78;3.10;;;31.70;58.90;;;32.66;40.07;95064.47;5125045;27;20214;-56
2022/06/26 09:18:17;;;;;;;5.05;2.25;;;31.90;58.00;;;32.80;39.81;95056.53;5121882;27;20192;-54
2022/06/26 09:20:53;;;;;;;3.17;1.77;;;32.00;57.00;;;32.93;39.11;95052.41;5123742;27;20279;-57
2022/06/26 09:23:22;;;;;;;4.30;2.70;;;32.20;56.80;;;33.04;39.27;95059.44;5125029;27;20197;-55
2022/06/26 09:25:49;;;;;;;7.68;2.90;;;32.30;57.10;;;33.15;40.00;95064.88;5125286;27;20245;-54
2022/06/26 09:28:19;;;;;;;5.43;2.47;;;32.40;57.00;;;33.24;38.54;95061.31;5122661;27;20214;-56
2022/06/26 09:30:48;;;;;;;2.53;2.03;;;32.50;55.60;;;33.32;39.26;95059.13;5129193;27;20596;-56
2022/06/26 09:33:15;;;;;;;2.95;2.50;;;32.60;55.90;;;33.23;38.43;95056.97;5121383;27;20231;-56
2022/06/26 09:35:42;;;;;;;5.57;3.20;;;32.60;55.00;;;33.02;38.54;95060.84;5123675;27;20222;-56
2022/06/26 09:38:10;;;;;;;6.32;2.97;;;32.40;54.80;;;33.00;39.37;95058.38;5120963;27;20247;-57
2022/06/26 09:40:46;;;;;;;2.92;2.60;;;32.30;56.00;;;33.03;36.65;95057.00;5127473;27;20222;-54
2022/06/26 09:43:26;;;;;;;4.15;2.92;;;32.30;54.50;;;33.04;39.10;95056.72;5129264;27;20198;-56
2022/06/26 09:45:54;;;;;;;11.73;3.72;;;32.30;54.90;;;33.06;38.75;95067.34;5125562;27;20222;-54
2022/06/26 09:48:22;;;;;;;4.22;2.55;;;32.30;54.60;;;33.09;38.30;95061.34;5128655;27;20229;-54
2022/06/26 09:50:50;;;;;;;3.85;2.65;;;32.40;54.20;;;33.16;38.71;95066.53;5129108;27;20588;-55
2022/06/26 09:53:17;;;;;;;6.20;2.38;;;32.40;54.50;;;33.19;38.97;95068.72;5128707;27;20198;-56
2022/06/26 09:55:46;;;;;;;5.47;3.08;;;32.50;54.80;;;33.24;38.62;95064.03;5128426;27;20219;-57
2022/06/26 09:58:14;;;;;;;3.17;2.88;;;32.50;55.30;;;33.28;38.14;95058.03;5128376;27;20202;-53
2022/06/26 10:00:41;;;;;;;3.70;2.17;;;32.50;53.40;;;33.34;38.24;95059.66;5128802;27;20230;-57
2022/06/26 10:08:45;;;;;;;4.32;2.55;;;32.70;53.10;;;33.31;37.31;95057.47;5110206;27;20213;-56
2022/06/26 10:11:14;;;;;;;4.55;2.85;;;32.60;52.50;;;33.33;37.62;95058.03;5128428;27;20589;-56
2022/06/26 10:13:41;;;;;;;4.28;2.60;;;32.60;53.10;;;33.35;36.49;95053.09;5128390;27;20206;-55
2022/06/26 10:16:46;;;;;;;1.88;1.75;;;32.60;51.00;;;33.27;36.27;95048.25;5128100;27;20222;-56
2022/06/26 10:19:21;;;;;;;5.03;2.92;;;32.60;52.20;;;33.26;37.11;95043.88;5124377;27;20202;-55
2022/06/26 10:21:49;;;;;;;3.03;2.25;;;32.50;52.10;;;33.25;36.22;95040.34;5128169;27;20373;-55
2022/06/26 10:24:16;;;;;;;6.00;2.08;;;32.60;50.30;;;33.11;36.76;95031.91;5127742;27;20679;-56
2022/06/26 10:26:54;;;;;;;6.70;1.73;;;32.40;51.20;;;32.97;35.78;95028.97;5127989;27;20222;-53
2022/06/26 10:29:35;;;;;;;4.40;1.95;;;32.30;50.20;;;32.85;36.80;95029.28;5125230;27;20206;-53
2022/06/26 10:32:02;;;;;;;7.97;1.95;;;32.10;52.40;;;32.81;36.57;95030.94;5125948;27;20209;-53